createdAt,value
2023-05-14T00:02:07.076Z,40.22
2023-05-14T00:05:00.508Z,41.10
2023-05-14T00:07:30.807Z,40.95
2023-05-14T00:09:59.420Z,41.23
2023-05-14T00:12:27.447Z,41.65
2023-05-14T00:14:58.046Z,41.95
2023-05-14T00:17:25.736Z,42.01
2023-05-14T00:19:53.521Z,42.07
2023-05-14T00:22:21.256Z,41.51
2023-05-14T00:24:48.903Z,41.88
2023-05-14T00:27:16.663Z,42.01
2023-05-14T00:29:45.732Z,41.09
2023-05-14T00:32:13.563Z,40.52
2023-05-14T00:34:41.346Z,39.56
2023-05-14T00:37:09.078Z,39.58
2023-05-14T00:39:37.079Z,39.38
2023-05-14T00:42:04.885Z,39.14
2023-05-14T00:44:32.746Z,39.00
2023-05-14T00:47:00.828Z,39.40
2023-05-14T00:49:28.809Z,39.58
2023-05-14T00:51:58.924Z,39.53
2023-05-14T00:54:28.117Z,39.65
2023-05-14T00:56:56.315Z,40.21
2023-05-14T00:59:23.908Z,39.93
2023-05-14T01:01:51.620Z,39.67
2023-05-14T01:04:19.890Z,39.68
2023-05-14T01:07:14.800Z,39.55
2023-05-14T01:10:17.442Z,41.43
2023-05-14T01:12:57.125Z,43.64
2023-05-14T01:15:30.976Z,44.65
2023-05-14T01:18:09.466Z,44.37
2023-05-14T01:20:38.167Z,44.58
2023-05-14T01:23:05.946Z,42.42
2023-05-14T01:25:33.766Z,41.12
2023-05-14T01:28:17.360Z,42.39
2023-05-14T01:31:12.098Z,40.85
2023-05-14T01:33:42.256Z,41.00
2023-05-14T01:36:10.777Z,41.61
2023-05-14T01:38:39.636Z,41.59
2023-05-14T01:41:07.550Z,40.82
2023-05-14T01:43:37.300Z,40.31
2023-05-14T01:46:05.280Z,39.94
2023-05-14T01:48:33.298Z,39.77
2023-05-14T01:51:02.239Z,40.10
2023-05-14T01:53:29.967Z,39.94
2023-05-14T01:55:57.624Z,40.15
2023-05-14T01:58:25.458Z,40.05
2023-05-14T02:00:53.149Z,39.91
2023-05-14T02:03:21.583Z,40.13
2023-05-14T02:05:49.290Z,40.90
2023-05-14T02:08:17.623Z,41.37
2023-05-14T02:10:45.422Z,41.14
2023-05-14T02:13:13.081Z,40.96
2023-05-14T02:15:40.882Z,40.55
2023-05-14T02:18:08.567Z,40.59
2023-05-14T02:20:36.274Z,40.79
2023-05-14T02:23:04.075Z,40.63
2023-05-14T02:25:31.664Z,40.94
2023-05-14T02:27:59.218Z,41.29
2023-05-14T02:30:27.003Z,41.51
2023-05-14T02:32:55.003Z,41.52
2023-05-14T02:35:22.978Z,41.69
2023-05-14T02:37:50.687Z,42.03
2023-05-14T02:40:18.387Z,42.09
2023-05-14T02:42:46.186Z,44.22
2023-05-14T02:45:13.907Z,46.19
2023-05-14T02:47:41.878Z,46.32
2023-05-14T02:50:11.167Z,46.06
2023-05-14T02:52:39.002Z,45.32
2023-05-14T02:55:07.102Z,44.53
2023-05-14T02:57:34.864Z,43.65
2023-05-14T03:00:02.555Z,43.29
2023-05-14T03:02:32.632Z,43.16
2023-05-14T03:05:00.746Z,44.41
2023-05-14T03:07:28.412Z,44.59
2023-05-14T03:09:56.397Z,44.28
2023-05-14T03:12:23.990Z,44.44
2023-05-14T03:14:51.664Z,44.17
2023-05-14T03:17:19.420Z,44.30
2023-05-14T03:19:47.102Z,46.33
2023-05-14T03:22:14.769Z,48.19
2023-05-14T03:24:42.561Z,49.28
2023-05-14T03:27:10.214Z,50.52
2023-05-14T03:29:37.896Z,53.29
2023-05-14T03:32:06.361Z,52.76
2023-05-14T03:34:34.153Z,50.23
2023-05-14T03:37:01.894Z,47.45
2023-05-14T03:39:29.527Z,48.38
2023-05-14T03:41:58.831Z,46.98
2023-05-14T03:44:26.775Z,46.54
2023-05-14T03:46:54.352Z,46.20
2023-05-14T03:49:22.415Z,45.74
2023-05-14T03:51:49.984Z,45.64
2023-05-14T03:54:17.853Z,45.48
2023-05-14T03:56:45.923Z,45.31
2023-05-14T03:59:14.225Z,44.98
2023-05-14T04:01:41.966Z,47.48
2023-05-14T04:04:09.708Z,47.18
2023-05-14T04:06:37.485Z,48.08
2023-05-14T04:09:05.286Z,49.11
2023-05-14T04:11:32.925Z,48.17
2023-05-14T04:14:00.900Z,47.38
2023-05-14T04:16:28.729Z,46.15
2023-05-14T04:18:56.599Z,45.41
2023-05-14T04:21:24.304Z,46.03
2023-05-14T04:23:51.924Z,46.37
2023-05-14T04:26:19.572Z,46.57
2023-05-14T04:28:47.509Z,46.78
2023-05-14T04:31:15.807Z,45.61
2023-05-14T04:33:43.560Z,45.12
2023-05-14T04:36:11.207Z,45.71
2023-05-14T04:38:38.930Z,46.04
2023-05-14T04:41:07.075Z,46.21
2023-05-14T04:43:34.789Z,45.58
2023-05-14T04:46:02.591Z,45.59
2023-05-14T04:48:30.437Z,46.08
2023-05-14T04:50:58.111Z,46.55
2023-05-14T04:53:25.768Z,47.22
2023-05-14T04:55:54.064Z,47.14
2023-05-14T04:58:23.535Z,47.17
2023-05-14T05:00:51.236Z,47.70
2023-05-14T05:03:18.976Z,47.66
2023-05-14T05:05:46.635Z,48.54
2023-05-14T05:08:14.265Z,47.12
2023-05-14T05:10:42.085Z,46.75
2023-05-14T05:13:09.823Z,46.59
2023-05-14T05:15:37.523Z,45.38
2023-05-14T05:18:05.355Z,44.76
2023-05-14T05:20:33.067Z,44.15
2023-05-14T05:23:00.780Z,43.93
2023-05-14T05:25:28.376Z,44.18
2023-05-14T05:27:55.979Z,44.51
2023-05-14T05:30:23.855Z,43.57
2023-05-14T05:32:51.789Z,42.55
2023-05-14T05:35:19.543Z,42.14
2023-05-14T05:37:47.143Z,42.17
2023-05-14T05:40:15.698Z,41.07
2023-05-14T05:42:43.588Z,40.05
2023-05-14T05:45:11.378Z,39.42
2023-05-14T05:47:39.034Z,39.20
2023-05-14T05:50:07.686Z,39.18
2023-05-14T05:52:35.490Z,39.25
2023-05-14T05:55:03.635Z,39.75
2023-05-14T05:57:31.333Z,38.29
2023-05-14T05:59:59.108Z,37.88
2023-05-14T06:02:26.851Z,37.71
2023-05-14T06:04:54.812Z,37.29
2023-05-14T06:07:22.461Z,37.38
2023-05-14T06:09:50.229Z,36.63
2023-05-14T06:12:17.841Z,37.00
2023-05-14T06:14:45.526Z,36.52
2023-05-14T06:17:13.101Z,35.90
2023-05-14T06:19:40.793Z,36.07
2023-05-14T06:22:08.348Z,36.66
2023-05-14T06:24:35.913Z,36.84
2023-05-14T06:27:03.717Z,37.34
2023-05-14T06:29:31.361Z,36.42
2023-05-14T06:32:03.714Z,39.53
2023-05-14T06:34:31.798Z,38.06
2023-05-14T06:37:00.261Z,37.37
2023-05-14T06:39:28.032Z,36.85
2023-05-14T06:41:55.728Z,36.44
2023-05-14T06:44:24.448Z,36.98
2023-05-14T06:46:52.072Z,35.37
2023-05-14T06:49:19.821Z,36.83
2023-05-14T06:51:47.393Z,36.11
2023-05-14T06:54:15.153Z,35.68
2023-05-14T06:56:42.821Z,35.43
2023-05-14T06:59:10.427Z,35.96
2023-05-14T07:01:38.082Z,36.51
2023-05-14T07:04:07.037Z,36.69
2023-05-14T07:06:35.110Z,34.25
2023-05-14T07:09:03.156Z,32.66
2023-05-14T07:11:30.963Z,33.70
2023-05-14T07:13:58.867Z,34.99
2023-05-14T07:16:26.842Z,34.09
2023-05-14T07:18:54.544Z,32.69
2023-05-14T07:21:22.112Z,33.02
2023-05-14T07:23:49.820Z,33.24
2023-05-14T07:26:17.606Z,31.97
2023-05-14T07:28:45.416Z,31.92
2023-05-14T07:31:13.125Z,31.96
2023-05-14T07:33:40.811Z,29.61
2023-05-14T07:36:08.935Z,28.44
2023-05-14T07:38:36.848Z,28.11
2023-05-14T07:41:04.920Z,27.48
2023-05-14T07:43:32.841Z,26.48
2023-05-14T07:46:00.550Z,25.69
2023-05-14T07:48:28.407Z,26.68
2023-05-14T07:50:56.150Z,26.02
2023-05-14T07:53:24.904Z,25.36
2023-05-14T07:55:52.736Z,25.20
2023-05-14T07:58:20.527Z,24.61
2023-05-14T08:00:48.126Z,25.91
2023-05-14T08:03:16.025Z,25.63
2023-05-14T08:05:43.727Z,24.83
2023-05-14T08:08:12.495Z,25.88
2023-05-14T08:10:40.289Z,27.68
2023-05-14T08:13:08.800Z,26.70
2023-05-14T08:15:37.017Z,25.94
2023-05-14T08:18:04.818Z,25.74
2023-05-14T08:20:32.742Z,25.11
2023-05-14T08:23:00.677Z,24.04
2023-05-14T08:25:28.367Z,23.86
2023-05-14T08:27:56.122Z,23.86
2023-05-14T08:30:24.182Z,22.42
2023-05-14T08:32:52.834Z,22.93
2023-05-14T08:35:20.721Z,23.42
2023-05-14T08:37:49.639Z,21.39
2023-05-14T08:40:17.552Z,22.41
2023-05-14T08:42:45.660Z,21.56
2023-05-14T08:45:20.113Z,22.23
2023-05-14T08:47:50.537Z,22.39
2023-05-14T08:50:23.522Z,20.98
2023-05-14T08:52:52.815Z,20.48
2023-05-14T08:55:21.116Z,20.95
2023-05-14T08:57:49.099Z,21.80
2023-05-14T09:00:16.837Z,22.58
2023-05-14T09:02:46.605Z,22.69
2023-05-14T09:05:15.408Z,22.44
2023-05-14T09:07:43.226Z,21.98
2023-05-14T09:10:12.667Z,21.83
2023-05-14T09:12:40.492Z,22.48
2023-05-14T09:15:08.800Z,21.89
2023-05-14T09:17:36.593Z,22.01
2023-05-14T09:20:05.104Z,22.04
2023-05-14T09:22:32.913Z,21.20
2023-05-14T09:25:12.246Z,20.52
2023-05-14T09:27:40.274Z,21.07
2023-05-14T09:30:13.284Z,21.39
2023-05-14T09:32:47.082Z,22.18
2023-05-14T09:35:23.863Z,21.39
2023-05-14T09:37:54.288Z,20.97
2023-05-14T09:40:24.654Z,20.63
2023-05-14T09:42:52.967Z,21.17
2023-05-14T09:45:20.856Z,21.97
2023-05-14T09:47:48.800Z,22.30
2023-05-14T09:50:16.650Z,21.70
2023-05-14T09:52:44.345Z,21.83
2023-05-14T09:55:11.973Z,20.57
2023-05-14T09:57:39.856Z,20.09
2023-05-14T10:00:09.217Z,20.54
2023-05-14T10:02:38.905Z,20.83
2023-05-14T10:05:07.818Z,21.53
2023-05-14T10:07:48.710Z,21.37
2023-05-14T10:10:20.208Z,21.69
2023-05-14T10:12:57.567Z,22.20
2023-05-14T10:15:37.826Z,21.81
2023-05-14T10:18:12.192Z,20.15
2023-05-14T10:20:41.572Z,20.66
2023-05-14T10:23:09.464Z,21.36
2023-05-14T10:25:38.021Z,20.63
2023-05-14T10:28:06.161Z,21.42
2023-05-14T10:30:33.748Z,21.40
2023-05-14T10:33:13.548Z,21.62
2023-05-14T10:36:05.921Z,19.84
2023-05-14T10:38:38.492Z,20.71
2023-05-14T10:41:21.515Z,21.62
2023-05-14T10:43:50.422Z,22.22
2023-05-14T10:46:18.302Z,22.08
2023-05-14T10:48:46.434Z,21.79
2023-05-14T10:51:17.399Z,20.86
2023-05-14T10:53:45.165Z,20.53
2023-05-14T10:56:14.378Z,20.51
2023-05-14T10:58:44.505Z,21.16
2023-05-14T11:01:13.675Z,22.05
2023-05-14T11:03:45.131Z,22.05
2023-05-14T11:06:15.862Z,21.71
2023-05-14T11:08:44.484Z,21.95
2023-05-14T11:11:12.390Z,21.66
2023-05-14T11:13:41.422Z,21.84
2023-05-14T11:16:21.788Z,23.00
2023-05-14T11:19:03.513Z,22.78
2023-05-14T11:21:32.619Z,23.93
2023-05-14T11:24:03.877Z,24.69
2023-05-14T11:26:32.017Z,23.26
2023-05-14T11:29:00.117Z,23.28
2023-05-14T11:31:28.030Z,21.50
2023-05-14T11:33:55.964Z,21.44
2023-05-14T11:36:23.610Z,21.91
2023-05-14T11:38:52.535Z,22.55
2023-05-14T11:41:23.195Z,22.62
2023-05-14T11:43:51.313Z,23.09
2023-05-14T11:46:19.702Z,23.58
2023-05-14T11:48:48.094Z,23.83
2023-05-14T11:51:15.998Z,23.49
2023-05-14T11:53:46.016Z,23.35
2023-05-14T11:56:13.909Z,23.10
2023-05-14T11:58:41.628Z,23.35
2023-05-14T12:01:13.843Z,23.79
2023-05-14T12:03:42.300Z,24.32
2023-05-14T12:06:10.295Z,23.89
2023-05-14T12:08:38.028Z,23.44
2023-05-14T12:11:05.709Z,23.07
2023-05-14T12:13:33.672Z,23.32
2023-05-14T12:16:02.658Z,23.09
2023-05-14T12:18:32.296Z,24.27
2023-05-14T12:21:05.187Z,24.80
2023-05-14T12:23:33.006Z,24.57
2023-05-14T12:26:06.938Z,24.08
2023-05-14T12:28:38.203Z,23.16
2023-05-14T12:31:06.402Z,22.38
2023-05-14T12:33:34.116Z,23.67
2023-05-14T12:36:10.074Z,23.99
2023-05-14T12:38:48.554Z,24.25
2023-05-14T12:41:17.713Z,23.73
2023-05-14T12:43:48.836Z,23.31
2023-05-14T12:46:17.010Z,23.28
2023-05-14T12:48:45.215Z,22.69
2023-05-14T12:51:16.940Z,22.32
2023-05-14T12:53:44.759Z,21.00
2023-05-14T12:56:13.737Z,21.88
2023-05-14T12:58:41.519Z,21.88
2023-05-14T13:01:09.541Z,22.23
2023-05-14T13:03:37.278Z,23.12
2023-05-14T13:06:05.174Z,22.54
2023-05-14T13:08:32.888Z,22.61
2023-05-14T13:11:00.482Z,22.58
2023-05-14T13:13:28.352Z,24.02
2023-05-14T13:15:56.179Z,24.29
2023-05-14T13:18:23.868Z,24.15
2023-05-14T13:20:51.864Z,24.28
2023-05-14T13:23:19.636Z,24.17
2023-05-14T13:25:49.749Z,23.91
2023-05-14T13:28:17.700Z,23.54
2023-05-14T13:31:06.917Z,23.30
2023-05-14T13:33:37.301Z,22.21
2023-05-14T13:36:05.812Z,22.50
2023-05-14T13:38:33.802Z,21.57
2023-05-14T13:41:04.176Z,23.14
2023-05-14T13:43:35.332Z,22.88
2023-05-14T13:46:05.266Z,22.38
2023-05-14T13:48:33.654Z,21.82
2023-05-14T13:51:01.343Z,21.74
2023-05-14T13:53:29.234Z,21.25
2023-05-14T13:55:58.285Z,21.35
2023-05-14T13:58:26.341Z,21.58
2023-05-14T14:00:54.548Z,22.55
2023-05-14T14:03:22.410Z,22.30
2023-05-14T14:05:50.201Z,20.53
2023-05-14T14:08:24.082Z,20.17
2023-05-14T14:10:54.574Z,21.22
2023-05-14T14:13:22.929Z,21.26
2023-05-14T14:15:51.210Z,20.85
2023-05-14T14:18:19.163Z,21.11
2023-05-14T14:20:47.302Z,21.82
2023-05-14T14:23:15.135Z,21.13
2023-05-14T14:25:42.771Z,21.36
2023-05-14T14:28:10.558Z,20.78
2023-05-14T14:30:38.125Z,20.71
2023-05-14T14:33:05.968Z,20.03
2023-05-14T14:35:35.269Z,20.88
2023-05-14T14:38:03.077Z,20.66
2023-05-14T14:40:34.051Z,19.52
2023-05-14T14:43:02.232Z,18.83
2023-05-14T14:45:29.995Z,19.82
2023-05-14T14:48:41.300Z,20.02
2023-05-14T14:51:09.786Z,19.29
2023-05-14T14:53:37.512Z,18.78
2023-05-14T14:56:05.963Z,19.46
2023-05-14T14:58:33.719Z,20.15
2023-05-14T15:01:01.607Z,19.05
2023-05-14T15:03:29.496Z,19.12
2023-05-14T15:05:57.335Z,17.48
2023-05-14T15:08:27.713Z,16.56
2023-05-14T15:10:57.162Z,16.54
2023-05-14T15:13:25.701Z,16.85
2023-05-14T15:15:53.438Z,16.21
2023-05-14T15:18:21.300Z,16.50
2023-05-14T15:20:49.293Z,16.16
2023-05-14T15:23:17.223Z,15.33
2023-05-14T15:25:45.134Z,14.13
2023-05-14T15:28:12.769Z,14.84
2023-05-14T15:30:40.469Z,14.94
2023-05-14T15:33:08.828Z,14.15
2023-05-14T15:35:36.857Z,13.54
2023-05-14T15:38:04.618Z,15.04
2023-05-14T15:40:34.933Z,14.64
2023-05-14T15:43:03.056Z,14.28
2023-05-14T15:45:30.712Z,15.22
2023-05-14T15:47:58.608Z,15.13
2023-05-14T15:50:27.375Z,14.67
2023-05-14T15:52:55.381Z,13.83
2023-05-14T15:55:23.149Z,14.16
2023-05-14T15:57:50.861Z,13.75
2023-05-14T16:00:19.604Z,14.14
2023-05-14T16:02:47.634Z,13.44
2023-05-14T16:05:15.454Z,13.26
2023-05-14T16:07:43.152Z,13.25
2023-05-14T16:10:11.394Z,12.63
2023-05-14T16:12:39.298Z,13.23
2023-05-14T16:15:08.182Z,12.65
2023-05-14T16:17:36.064Z,12.75
2023-05-14T16:20:07.021Z,13.24
2023-05-14T16:22:36.109Z,13.17
2023-05-14T16:25:04.924Z,12.54
2023-05-14T16:27:33.415Z,13.00
2023-05-14T16:30:01.104Z,12.18
2023-05-14T16:32:29.084Z,13.37
2023-05-14T16:34:57.088Z,15.75
2023-05-14T16:37:24.854Z,15.58
2023-05-14T16:39:52.626Z,16.31
2023-05-14T16:42:20.243Z,15.59
2023-05-14T16:44:47.868Z,15.84
2023-05-14T16:47:15.585Z,16.02
2023-05-14T16:49:43.364Z,15.06
2023-05-14T16:52:11.215Z,16.95
2023-05-14T16:54:39.230Z,16.48
2023-05-14T16:57:07.003Z,16.76
2023-05-14T16:59:34.837Z,16.81
2023-05-14T17:02:03.072Z,16.60
2023-05-14T17:04:34.750Z,16.93
2023-05-14T17:07:03.926Z,16.80
2023-05-14T17:09:31.709Z,17.00
2023-05-14T17:11:59.455Z,17.32
2023-05-14T17:14:27.376Z,17.59
2023-05-14T17:16:55.156Z,18.95
2023-05-14T17:19:22.812Z,18.78
2023-05-14T17:21:50.854Z,18.78
2023-05-14T17:24:18.622Z,19.11
2023-05-14T17:26:46.333Z,19.01
2023-05-14T17:29:17.139Z,20.08
2023-05-14T17:31:44.876Z,19.57
2023-05-14T17:34:12.533Z,19.85
2023-05-14T17:36:40.247Z,19.98
2023-05-14T17:39:07.940Z,20.43
2023-05-14T17:41:35.683Z,20.43
2023-05-14T17:44:03.323Z,20.33
2023-05-14T17:46:31.165Z,20.56
2023-05-14T17:48:58.916Z,20.51
2023-05-14T17:51:26.648Z,20.89
2023-05-14T17:53:54.331Z,20.66
2023-05-14T17:56:23.219Z,22.53
2023-05-14T17:58:51.025Z,21.37
2023-05-14T18:01:19.287Z,22.11
2023-05-14T18:03:49.562Z,21.98
2023-05-14T18:06:17.616Z,22.10
2023-05-14T18:08:45.377Z,22.04
2023-05-14T18:11:13.215Z,22.00
2023-05-14T18:13:41.094Z,22.18
2023-05-14T18:16:08.835Z,22.70
2023-05-14T18:18:36.618Z,21.82
2023-05-14T18:21:05.382Z,22.11
2023-05-14T18:23:33.602Z,22.86
2023-05-14T18:26:01.554Z,22.62
2023-05-14T18:28:29.381Z,23.53
2023-05-14T18:30:57.142Z,23.56
2023-05-14T18:33:25.806Z,23.08
2023-05-14T18:35:55.705Z,23.71
2023-05-14T18:38:23.742Z,23.08
2023-05-14T18:40:51.680Z,23.57
2023-05-14T18:43:19.786Z,24.71
2023-05-14T18:45:48.273Z,24.12
2023-05-14T18:48:16.495Z,24.49
2023-05-14T18:50:44.381Z,24.55
2023-05-14T18:53:12.179Z,25.38
2023-05-14T18:55:43.167Z,25.81
2023-05-14T18:58:12.061Z,25.06
2023-05-14T19:00:40.848Z,25.26
2023-05-14T19:03:11.334Z,25.97
2023-05-14T19:05:39.315Z,26.26
2023-05-14T19:08:07.652Z,26.95
2023-05-14T19:10:35.439Z,27.09
2023-05-14T19:13:03.547Z,27.36
2023-05-14T19:15:32.313Z,26.83
2023-05-14T19:18:00.887Z,26.88
2023-05-14T19:20:28.705Z,27.34
2023-05-14T19:22:56.335Z,27.42
2023-05-14T19:25:24.608Z,27.85
2023-05-14T19:27:53.620Z,27.29
2023-05-14T19:30:21.501Z,27.70
2023-05-14T19:32:49.647Z,28.76
2023-05-14T19:35:17.532Z,29.12
2023-05-14T19:37:46.305Z,28.21
2023-05-14T19:40:13.958Z,29.67
2023-05-14T19:42:41.711Z,28.51
2023-05-14T19:45:10.197Z,28.20
2023-05-14T19:47:37.922Z,29.25
2023-05-14T19:50:08.384Z,28.20
2023-05-14T19:52:36.188Z,27.67
2023-05-14T19:55:04.251Z,27.28
2023-05-14T19:57:31.937Z,27.10
2023-05-14T19:59:59.748Z,27.59
2023-05-14T20:02:27.505Z,27.30
2023-05-14T20:04:55.413Z,27.82
2023-05-14T20:07:24.944Z,27.35
2023-05-14T20:09:52.633Z,28.01
2023-05-14T20:12:20.360Z,28.14
2023-05-14T20:14:48.010Z,28.52
2023-05-14T20:17:15.883Z,28.08
2023-05-14T20:19:43.776Z,28.92
2023-05-14T20:22:11.403Z,29.06
2023-05-14T20:24:41.022Z,29.15
2023-05-14T20:27:08.882Z,29.88
2023-05-14T20:29:36.463Z,30.51
2023-05-14T20:32:04.500Z,30.37
2023-05-14T20:34:32.116Z,29.82
2023-05-14T20:36:59.853Z,30.46
2023-05-14T20:39:27.481Z,32.07
2023-05-14T20:41:55.134Z,32.38
2023-05-14T20:44:22.807Z,32.67
2023-05-14T20:46:50.704Z,32.21
2023-05-14T20:49:18.420Z,30.77
2023-05-14T20:51:46.135Z,31.27
2023-05-14T20:54:13.777Z,31.16
2023-05-14T20:56:41.468Z,31.13
2023-05-14T20:59:09.176Z,31.54
2023-05-14T21:01:37.068Z,32.27
2023-05-14T21:04:04.983Z,32.40
2023-05-14T21:06:32.764Z,32.17
2023-05-14T21:09:02.711Z,31.27
2023-05-14T21:11:30.396Z,30.66
2023-05-14T21:13:58.086Z,30.55
2023-05-14T21:16:25.891Z,30.53
2023-05-14T21:18:53.669Z,30.45
2023-05-14T21:21:23.986Z,30.81
2023-05-14T21:23:51.959Z,30.20
2023-05-14T21:26:22.151Z,31.13
2023-05-14T21:28:49.821Z,31.80
2023-05-14T21:31:17.562Z,30.98
2023-05-14T21:33:45.282Z,30.43
2023-05-14T21:36:13.013Z,30.48
2023-05-14T21:38:41.573Z,30.61
2023-05-14T21:41:12.128Z,31.15
2023-05-14T21:43:40.754Z,30.36
2023-05-14T21:46:08.642Z,30.84
2023-05-14T21:48:36.412Z,30.61
2023-05-14T21:51:04.265Z,30.20
2023-05-14T21:53:31.928Z,30.62
2023-05-14T21:55:59.511Z,30.85
2023-05-14T21:58:27.685Z,30.47
2023-05-14T22:00:55.280Z,30.22
2023-05-14T22:03:23.268Z,30.18
2023-05-14T22:05:51.581Z,29.86
2023-05-14T22:08:19.343Z,29.77
2023-05-14T22:10:47.539Z,30.43
2023-05-14T22:13:15.322Z,30.41
2023-05-14T22:15:42.975Z,30.51
2023-05-14T22:18:12.625Z,30.58
2023-05-14T22:20:40.525Z,30.32
2023-05-14T22:23:08.204Z,30.82
2023-05-14T22:25:35.829Z,30.36
2023-05-14T22:28:03.573Z,30.92
2023-05-14T22:30:31.239Z,31.45
2023-05-14T22:32:58.959Z,31.18
2023-05-14T22:35:27.004Z,31.56
2023-05-14T22:37:54.776Z,31.01
2023-05-14T22:40:22.404Z,32.13
2023-05-14T22:42:50.021Z,31.85
2023-05-14T22:45:17.877Z,31.89
2023-05-14T22:47:45.539Z,32.05
2023-05-14T22:50:13.312Z,32.25
2023-05-14T22:52:41.403Z,32.77
2023-05-14T22:55:09.386Z,33.27
2023-05-14T22:57:37.186Z,33.70
2023-05-14T23:00:06.972Z,33.42
2023-05-14T23:02:34.713Z,33.18
2023-05-14T23:05:02.566Z,33.38
2023-05-14T23:07:30.246Z,33.60
2023-05-14T23:09:57.924Z,34.29
2023-05-14T23:12:25.998Z,34.06
2023-05-14T23:14:53.589Z,34.43
2023-05-14T23:17:21.313Z,34.79
2023-05-14T23:19:49.026Z,36.67
2023-05-14T23:22:16.782Z,36.21
2023-05-14T23:24:45.018Z,35.95
2023-05-14T23:27:13.564Z,35.28
2023-05-14T23:29:41.235Z,35.14
2023-05-14T23:32:11.768Z,35.56
2023-05-14T23:34:39.617Z,36.54
2023-05-14T23:37:07.775Z,37.41
2023-05-14T23:39:35.391Z,37.18
2023-05-14T23:42:03.133Z,37.11
2023-05-14T23:44:30.812Z,37.38
2023-05-14T23:46:58.572Z,37.07
2023-05-14T23:49:26.363Z,36.19
2023-05-14T23:51:54.770Z,36.00
2023-05-14T23:54:22.430Z,36.90
2023-05-14T23:56:50.114Z,36.47
2023-05-14T23:59:18.407Z,36.31
